KETN

Details ICAO KETN
Name EASTLAND MUNI
Region United States
Timezone America/Chicago (UTC-6.0)
Plans Departing 2
Arriving 3
Stats Elevation 1,464 ft / 446 m (AMSL)
Location 32.413543° -98.809750°
Runways 1
Magnetic Variation 4.467° E
Sunrise 2017-12-16 13:31:31 UTC / 2017-12-16 07:31:31 Local
Sunset 2017-12-16 23:33:15 UTC / 2017-12-16 17:33:15 Local
Advertisement - Login to hide

Runways

ID Width Length Bearing (true) Bearing (mag) Surface Threshold Offset Overrun Length
17 60 ft / 18 m 4,031 ft / 1,229 m 181.82° 177.35° Asphalt 0 ft / 0 m 0 ft / 0 m
35 60 ft / 18 m 4,031 ft / 1,229 m 1.82° 357.35° Asphalt 0 ft / 0 m 0 ft / 0 m

Map

Weather


0- 5 10 15 20 25 30 35+ Temperature / ° C

Clouds and Precipitation
Forecast for 2017-12-16 18:00 UTC. Updated an hour ago

Ground ~20,000 ft ~40,000 ft Winds

METAR

KETN 161815Z AUTO 19013G18KT 10SM OVC070 13/M02 A3004 RMK AO2 T01291024

TAF

Not found

Frequencies

Unicom 122.80 MHz CTAF/UNICOM
Approach 127.15 MHz FORT WORTH CNTR
Warning: Do not use this data for real-world aviation or navigation. No guarantee of current accuracy is given.